Kane, Illinois
Current Conditions -  °F | °C
As of 11:54 PM on Sunday 25 Jan 2015 (Local Time) from KSET Reporting Station
Scattered Clouds Scattered Clouds  
Wind Chill: 18°   Ceiling: Unl
Heat Index: 29°   Visibility: 10mi
Dew Point: 22°   Wind: 15mph
Humidity: 75%   Direction: 340°NNW
Pressure: 30.04"   Gusts: NA
Location:  39.19°N, 90.35°W
Report Text: KSET 260554Z AUTO 34013KT 10SM SCT020 M02/M06 A3004 RMK AO2 SLP173 60001 T10171056 10017 21017 400891017 51016
Loading
Personal Weather Stations






























Interactive Weather Map New forecast layout! Learn more

10-Day Weather Forecast

Advertisements
Track Severe Weather on mobile